Current Weather

Randolph Afb

Universal City, Texas (KRND)

Report from: Monday, September 26, 2022 7:55 PM CDT
Current time: Monday, September 26, 2022 8:44 PM CDT

Nearby weather
Weather history
Weather forecast

Temperature29.0°C (84.2°F)
Heat index27.6°C (81.8°F)
Dew point5.1°C (41.2°F)
Winds Calm
Visibility10 mi. (16.1 km)
Clouds Sky clear
Altimeter29.99 in.Hg (1016 mB)
Relative humidity22 %
Density altitude1,662 ft. (507 m)
Sea-level pressure101.5 kPa (1015 mB, 29.97 in.Hg)
Remarks Fully automated report
Automated weather observing station with precipitation discriminator
Flight conditions Visual Meteorological Conditions
Raw dataKRND 270055Z AUTO 00000KT 10SM CLR 29/05 A2999 RMK AO2 SLP148 T02900051
An unhandled exception has occurred. See browser dev tools for details. Reload 🗙